sensor_id;sensor_type;location;lat;lon;timestamp;temperature;humidity
7784;DHT22;19359;51.402;6.778;2024-01-30T00:00:46;7.90;99.90
7784;DHT22;19359;51.402;6.778;2024-01-30T00:05:41;7.80;99.90
7784;DHT22;19359;51.402;6.778;2024-01-30T00:13:03;7.90;99.90
7784;DHT22;19359;51.402;6.778;2024-01-30T00:17:56;7.80;99.90
7784;DHT22;19359;51.402;6.778;2024-01-30T00:20:23;7.90;99.90
7784;DHT22;19359;51.402;6.778;2024-01-30T00:22:51;7.50;99.90
7784;DHT22;19359;51.402;6.778;2024-01-30T00:30:13;7.90;99.90
7784;DHT22;19359;51.402;6.778;2024-01-30T00:32:40;8.00;99.90
7784;DHT22;19359;51.402;6.778;2024-01-30T00:35:07;8.00;99.90
7784;DHT22;19359;51.402;6.778;2024-01-30T00:37:35;8.10;99.90
7784;DHT22;19359;51.402;6.778;2024-01-30T00:40:04;8.10;99.90
7784;DHT22;19359;51.402;6.778;2024-01-30T00:42:31;8.00;99.90
7784;DHT22;19359;51.402;6.778;2024-01-30T00:44:58;8.10;99.90
7784;DHT22;19359;51.402;6.778;2024-01-30T00:47:25;8.10;99.90
7784;DHT22;19359;51.402;6.778;2024-01-30T00:49:52;8.10;99.90
7784;DHT22;19359;51.402;6.778;2024-01-30T00:52:19;8.10;99.90
7784;DHT22;19359;51.402;6.778;2024-01-30T00:54:45;8.10;99.90
7784;DHT22;19359;51.402;6.778;2024-01-30T00:57:14;8.10;99.90
7784;DHT22;19359;51.402;6.778;2024-01-30T00:59:40;8.00;99.90
7784;DHT22;19359;51.402;6.778;2024-01-30T01:02:07;8.10;99.90
7784;DHT22;19359;51.402;6.778;2024-01-30T01:04:34;8.00;99.90
7784;DHT22;19359;51.402;6.778;2024-01-30T01:07:02;8.00;99.90
7784;DHT22;19359;51.402;6.778;2024-01-30T01:11:55;8.00;99.90
7784;DHT22;19359;51.402;6.778;2024-01-30T01:14:23;7.90;99.90
7784;DHT22;19359;51.402;6.778;2024-01-30T01:16:50;8.00;99.90
7784;DHT22;19359;51.402;6.778;2024-01-30T01:19:17;8.00;99.90
7784;DHT22;19359;51.402;6.778;2024-01-30T01:24:11;7.90;99.90
7784;DHT22;19359;51.402;6.778;2024-01-30T01:29:06;7.90;99.90
7784;DHT22;19359;51.402;6.778;2024-01-30T01:31:37;7.80;99.90
7784;DHT22;19359;51.402;6.778;2024-01-30T01:36:36;7.80;99.90
7784;DHT22;19359;51.402;6.778;2024-01-30T01:41:30;7.80;99.90
7784;DHT22;19359;51.402;6.778;2024-01-30T01:43:57;7.80;99.90
7784;DHT22;19359;51.402;6.778;2024-01-30T01:46:26;7.80;99.90
7784;DHT22;19359;51.402;6.778;2024-01-30T01:48:55;7.80;99.90
7784;DHT22;19359;51.402;6.778;2024-01-30T01:51:22;7.70;99.90
7784;DHT22;19359;51.402;6.778;2024-01-30T01:53:49;7.70;99.90
7784;DHT22;19359;51.402;6.778;2024-01-30T01:56:16;7.70;99.90
7784;DHT22;19359;51.402;6.778;2024-01-30T01:58:45;7.80;99.90
7784;DHT22;19359;51.402;6.778;2024-01-30T02:01:13;7.80;99.90
7784;DHT22;19359;51.402;6.778;2024-01-30T02:03:41;7.80;99.90
7784;DHT22;19359;51.402;6.778;2024-01-30T02:06:09;7.70;99.90
7784;DHT22;19359;51.402;6.778;2024-01-30T02:08:37;7.70;99.90
7784;DHT22;19359;51.402;6.778;2024-01-30T02:11:04;7.80;99.90
7784;DHT22;19359;51.402;6.778;2024-01-30T02:13:31;7.70;99.90
7784;DHT22;19359;51.402;6.778;2024-01-30T02:15:58;7.70;99.90
7784;DHT22;19359;51.402;6.778;2024-01-30T02:18:25;7.70;99.90
7784;DHT22;19359;51.402;6.778;2024-01-30T02:20:53;7.60;99.90
7784;DHT22;19359;51.402;6.778;2024-01-30T02:23:23;7.60;99.90
7784;DHT22;19359;51.402;6.778;2024-01-30T02:25:50;7.60;99.90
7784;DHT22;19359;51.402;6.778;2024-01-30T02:28:18;7.50;99.90
7784;DHT22;19359;51.402;6.778;2024-01-30T02:30:46;7.50;99.90
7784;DHT22;19359;51.402;6.778;2024-01-30T02:33:13;7.60;99.90
7784;DHT22;19359;51.402;6.778;2024-01-30T02:35:40;7.60;99.90
7784;DHT22;19359;51.402;6.778;2024-01-30T02:38:06;7.70;99.90
7784;DHT22;19359;51.402;6.778;2024-01-30T02:40:35;7.80;99.90
7784;DHT22;19359;51.402;6.778;2024-01-30T02:43:02;7.80;99.90
7784;DHT22;19359;51.402;6.778;2024-01-30T02:45:29;7.90;99.90
7784;DHT22;19359;51.402;6.778;2024-01-30T02:47:56;7.90;99.90
7784;DHT22;19359;51.402;6.778;2024-01-30T02:50:22;7.90;99.90
7784;DHT22;19359;51.402;6.778;2024-01-30T02:52:49;7.90;99.90
7784;DHT22;19359;51.402;6.778;2024-01-30T02:55:16;8.00;99.90
7784;DHT22;19359;51.402;6.778;2024-01-30T02:57:45;8.00;99.90
7784;DHT22;19359;51.402;6.778;2024-01-30T03:00:13;8.00;99.90
7784;DHT22;19359;51.402;6.778;2024-01-30T03:05:08;8.00;99.90
7784;DHT22;19359;51.402;6.778;2024-01-30T03:07:35;8.00;99.90
7784;DHT22;19359;51.402;6.778;2024-01-30T03:10:02;8.00;99.90
7784;DHT22;19359;51.402;6.778;2024-01-30T03:12:30;8.00;99.90
7784;DHT22;19359;51.402;6.778;2024-01-30T03:14:58;8.00;99.90
7784;DHT22;19359;51.402;6.778;2024-01-30T03:17:25;8.00;99.90
7784;DHT22;19359;51.402;6.778;2024-01-30T03:19:52;8.00;99.90
7784;DHT22;19359;51.402;6.778;2024-01-30T03:24:46;8.00;99.90
7784;DHT22;19359;51.402;6.778;2024-01-30T03:27:13;7.90;99.90
7784;DHT22;19359;51.402;6.778;2024-01-30T03:32:08;8.00;99.90
7784;DHT22;19359;51.402;6.778;2024-01-30T03:39:30;7.90;99.90
7784;DHT22;19359;51.402;6.778;2024-01-30T03:41:57;7.90;99.90
7784;DHT22;19359;51.402;6.778;2024-01-30T03:44:24;7.80;99.90
7784;DHT22;19359;51.402;6.778;2024-01-30T03:46:50;7.80;99.90
7784;DHT22;19359;51.402;6.778;2024-01-30T03:49:19;7.80;99.90
7784;DHT22;19359;51.402;6.778;2024-01-30T03:54:13;7.80;99.90
7784;DHT22;19359;51.402;6.778;2024-01-30T03:56:40;7.80;99.90
7784;DHT22;19359;51.402;6.778;2024-01-30T03:59:07;7.80;99.90
7784;DHT22;19359;51.402;6.778;2024-01-30T04:01:34;7.80;99.90
7784;DHT22;19359;51.402;6.778;2024-01-30T04:06:29;7.80;99.90
7784;DHT22;19359;51.402;6.778;2024-01-30T04:08:56;7.70;99.90
7784;DHT22;19359;51.402;6.778;2024-01-30T04:11:23;7.70;99.90
7784;DHT22;19359;51.402;6.778;2024-01-30T04:13:49;7.70;99.90
7784;DHT22;19359;51.402;6.778;2024-01-30T04:16:20;7.80;99.90
7784;DHT22;19359;51.402;6.778;2024-01-30T04:18:47;7.80;99.90
7784;DHT22;19359;51.402;6.778;2024-01-30T04:21:14;7.80;99.90
7784;DHT22;19359;51.402;6.778;2024-01-30T04:23:42;7.70;99.90
7784;DHT22;19359;51.402;6.778;2024-01-30T04:26:09;7.70;99.90
7784;DHT22;19359;51.402;6.778;2024-01-30T04:28:36;7.60;99.90
7784;DHT22;19359;51.402;6.778;2024-01-30T04:31:03;7.70;99.90
7784;DHT22;19359;51.402;6.778;2024-01-30T04:33:30;7.60;99.90
7784;DHT22;19359;51.402;6.778;2024-01-30T04:35:57;7.70;99.90
7784;DHT22;19359;51.402;6.778;2024-01-30T04:38:23;7.70;99.90
7784;DHT22;19359;51.402;6.778;2024-01-30T04:40:52;7.70;99.90
7784;DHT22;19359;51.402;6.778;2024-01-30T04:48:13;7.70;99.90
7784;DHT22;19359;51.402;6.778;2024-01-30T04:50:39;7.60;99.90
7784;DHT22;19359;51.402;6.778;2024-01-30T04:55:35;7.60;99.90
7784;DHT22;19359;51.402;6.778;2024-01-30T04:58:04;7.60;99.90
7784;DHT22;19359;51.402;6.778;2024-01-30T05:00:30;7.70;99.90
7784;DHT22;19359;51.402;6.778;2024-01-30T05:02:57;7.80;99.90
7784;DHT22;19359;51.402;6.778;2024-01-30T05:05:24;7.70;99.90
7784;DHT22;19359;51.402;6.778;2024-01-30T05:12:45;7.80;99.90
7784;DHT22;19359;51.402;6.778;2024-01-30T05:15:13;7.80;99.90
7784;DHT22;19359;51.402;6.778;2024-01-30T05:17:40;7.80;99.90
7784;DHT22;19359;51.402;6.778;2024-01-30T05:20:08;7.80;99.90
7784;DHT22;19359;51.402;6.778;2024-01-30T05:25:04;7.70;99.90
7784;DHT22;19359;51.402;6.778;2024-01-30T05:27:31;7.80;99.90
7784;DHT22;19359;51.402;6.778;2024-01-30T05:29:58;7.70;99.90
7784;DHT22;19359;51.402;6.778;2024-01-30T05:32:26;7.80;99.90
7784;DHT22;19359;51.402;6.778;2024-01-30T05:39:47;7.80;99.90
7784;DHT22;19359;51.402;6.778;2024-01-30T05:47:09;7.60;99.90
7784;DHT22;19359;51.402;6.778;2024-01-30T05:49:37;7.50;99.90
7784;DHT22;19359;51.402;6.778;2024-01-30T05:52:05;7.50;99.90
7784;DHT22;19359;51.402;6.778;2024-01-30T05:54:32;7.50;99.90
7784;DHT22;19359;51.402;6.778;2024-01-30T05:56:59;7.60;99.90
7784;DHT22;19359;51.402;6.778;2024-01-30T05:59:26;7.60;99.90
7784;DHT22;19359;51.402;6.778;2024-01-30T06:01:53;7.60;99.90
7784;DHT22;19359;51.402;6.778;2024-01-30T06:04:20;7.70;99.90
7784;DHT22;19359;51.402;6.778;2024-01-30T06:06:48;7.80;99.90
7784;DHT22;19359;51.402;6.778;2024-01-30T06:09:15;7.80;99.90
7784;DHT22;19359;51.402;6.778;2024-01-30T06:11:41;7.80;99.90
7784;DHT22;19359;51.402;6.778;2024-01-30T06:14:08;7.70;99.90
7784;DHT22;19359;51.402;6.778;2024-01-30T06:16:35;7.80;99.90
7784;DHT22;19359;51.402;6.778;2024-01-30T06:19:02;7.70;99.90
7784;DHT22;19359;51.402;6.778;2024-01-30T06:21:29;7.70;99.90
7784;DHT22;19359;51.402;6.778;2024-01-30T06:23:57;7.70;99.90
7784;DHT22;19359;51.402;6.778;2024-01-30T06:26:24;7.80;99.90
7784;DHT22;19359;51.402;6.778;2024-01-30T06:33:46;8.00;99.90
7784;DHT22;19359;51.402;6.778;2024-01-30T06:36:13;8.00;99.90
7784;DHT22;19359;51.402;6.778;2024-01-30T06:38:41;7.90;99.90
7784;DHT22;19359;51.402;6.778;2024-01-30T06:41:09;8.00;99.90
7784;DHT22;19359;51.402;6.778;2024-01-30T06:50:57;7.90;99.90
7784;DHT22;19359;51.402;6.778;2024-01-30T06:53:24;7.90;99.90
7784;DHT22;19359;51.402;6.778;2024-01-30T06:55:51;8.00;99.90
7784;DHT22;19359;51.402;6.778;2024-01-30T06:58:20;8.10;99.90
7784;DHT22;19359;51.402;6.778;2024-01-30T07:00:46;8.00;99.90
7784;DHT22;19359;51.402;6.778;2024-01-30T07:08:08;8.00;99.90
7784;DHT22;19359;51.402;6.778;2024-01-30T07:10:35;7.90;99.90
7784;DHT22;19359;51.402;6.778;2024-01-30T07:15:32;8.00;99.90
7784;DHT22;19359;51.402;6.778;2024-01-30T07:17:58;8.00;99.90
7784;DHT22;19359;51.402;6.778;2024-01-30T07:27:47;8.00;99.90
7784;DHT22;19359;51.402;6.778;2024-01-30T07:30:14;8.00;99.90
7784;DHT22;19359;51.402;6.778;2024-01-30T07:32:44;8.00;99.90
7784;DHT22;19359;51.402;6.778;2024-01-30T07:35:11;8.00;99.90
7784;DHT22;19359;51.402;6.778;2024-01-30T07:37:37;8.10;99.90
7784;DHT22;19359;51.402;6.778;2024-01-30T07:40:05;8.10;99.90
7784;DHT22;19359;51.402;6.778;2024-01-30T07:45:00;8.20;99.90
7784;DHT22;19359;51.402;6.778;2024-01-30T07:49:55;8.20;99.90
7784;DHT22;19359;51.402;6.778;2024-01-30T07:52:22;8.20;99.90
7784;DHT22;19359;51.402;6.778;2024-01-30T07:54:48;8.20;99.90
7784;DHT22;19359;51.402;6.778;2024-01-30T07:57:15;8.20;99.90
7784;DHT22;19359;51.402;6.778;2024-01-30T07:59:42;8.20;99.90
7784;DHT22;19359;51.402;6.778;2024-01-30T08:02:11;8.30;99.90
7784;DHT22;19359;51.402;6.778;2024-01-30T08:04:38;8.30;99.90
7784;DHT22;19359;51.402;6.778;2024-01-30T08:07:06;8.30;99.90
7784;DHT22;19359;51.402;6.778;2024-01-30T08:09:33;8.40;99.90
7784;DHT22;19359;51.402;6.778;2024-01-30T08:12:00;8.50;99.90
7784;DHT22;19359;51.402;6.778;2024-01-30T08:14:27;8.50;99.90
7784;DHT22;19359;51.402;6.778;2024-01-30T08:16:53;8.50;99.90
7784;DHT22;19359;51.402;6.778;2024-01-30T08:19:20;8.50;99.90
7784;DHT22;19359;51.402;6.778;2024-01-30T08:24:16;8.60;99.90
7784;DHT22;19359;51.402;6.778;2024-01-30T08:26:42;8.60;99.90
7784;DHT22;19359;51.402;6.778;2024-01-30T08:29:09;8.60;99.90
7784;DHT22;19359;51.402;6.778;2024-01-30T08:31:36;8.60;99.90
7784;DHT22;19359;51.402;6.778;2024-01-30T08:34:03;8.70;99.90
7784;DHT22;19359;51.402;6.778;2024-01-30T08:36:30;8.70;99.90
7784;DHT22;19359;51.402;6.778;2024-01-30T08:38:56;8.80;99.90
7784;DHT22;19359;51.402;6.778;2024-01-30T08:41:25;8.80;99.90
7784;DHT22;19359;51.402;6.778;2024-01-30T08:43:52;8.80;99.90
7784;DHT22;19359;51.402;6.778;2024-01-30T08:46:20;8.80;99.90
7784;DHT22;19359;51.402;6.778;2024-01-30T08:48:47;8.80;99.90
7784;DHT22;19359;51.402;6.778;2024-01-30T08:51:14;8.90;99.90
7784;DHT22;19359;51.402;6.778;2024-01-30T08:53:41;8.90;99.90
7784;DHT22;19359;51.402;6.778;2024-01-30T08:56:08;8.90;99.90
7784;DHT22;19359;51.402;6.778;2024-01-30T08:58:36;8.90;99.90
7784;DHT22;19359;51.402;6.778;2024-01-30T09:01:03;8.90;99.90
7784;DHT22;19359;51.402;6.778;2024-01-30T09:03:31;9.00;99.90
7784;DHT22;19359;51.402;6.778;2024-01-30T09:05:58;9.00;99.90
7784;DHT22;19359;51.402;6.778;2024-01-30T09:08:25;9.00;99.90
7784;DHT22;19359;51.402;6.778;2024-01-30T09:10:51;9.00;99.90
7784;DHT22;19359;51.402;6.778;2024-01-30T09:13:18;9.10;99.90
7784;DHT22;19359;51.402;6.778;2024-01-30T09:15:46;9.10;99.90
7784;DHT22;19359;51.402;6.778;2024-01-30T09:18:13;9.20;99.90
7784;DHT22;19359;51.402;6.778;2024-01-30T09:20:40;9.20;99.90
7784;DHT22;19359;51.402;6.778;2024-01-30T09:23:07;9.30;99.90
7784;DHT22;19359;51.402;6.778;2024-01-30T09:25:34;9.40;99.90
7784;DHT22;19359;51.402;6.778;2024-01-30T09:28:00;9.40;99.90
7784;DHT22;19359;51.402;6.778;2024-01-30T09:33:50;9.60;99.90
7784;DHT22;19359;51.402;6.778;2024-01-30T09:36:19;9.60;99.90
7784;DHT22;19359;51.402;6.778;2024-01-30T09:38:46;9.70;99.90
7784;DHT22;19359;51.402;6.778;2024-01-30T09:41:13;9.80;99.90
7784;DHT22;19359;51.402;6.778;2024-01-30T09:43:40;9.80;99.90
7784;DHT22;19359;51.402;6.778;2024-01-30T09:46:10;9.90;99.90
7784;DHT22;19359;51.402;6.778;2024-01-30T09:48:39;9.90;99.90
7784;DHT22;19359;51.402;6.778;2024-01-30T09:51:08;10.00;99.90
7784;DHT22;19359;51.402;6.778;2024-01-30T09:53:36;10.10;99.90
7784;DHT22;19359;51.402;6.778;2024-01-30T09:56:04;10.10;99.90
7784;DHT22;19359;51.402;6.778;2024-01-30T09:58:32;10.20;99.90
7784;DHT22;19359;51.402;6.778;2024-01-30T10:00:58;10.30;99.90
7784;DHT22;19359;51.402;6.778;2024-01-30T10:03:25;10.30;99.90
7784;DHT22;19359;51.402;6.778;2024-01-30T10:05:52;10.40;99.90
7784;DHT22;19359;51.402;6.778;2024-01-30T10:08:20;10.40;99.90
7784;DHT22;19359;51.402;6.778;2024-01-30T10:10:48;10.50;99.90
7784;DHT22;19359;51.402;6.778;2024-01-30T10:13:15;10.50;99.90
7784;DHT22;19359;51.402;6.778;2024-01-30T10:15:42;10.60;99.90
7784;DHT22;19359;51.402;6.778;2024-01-30T10:18:10;10.60;99.90
7784;DHT22;19359;51.402;6.778;2024-01-30T10:20:37;10.60;99.90
7784;DHT22;19359;51.402;6.778;2024-01-30T10:23:04;10.60;99.90
7784;DHT22;19359;51.402;6.778;2024-01-30T10:25:32;10.60;99.90
7784;DHT22;19359;51.402;6.778;2024-01-30T10:27:59;10.60;99.90
7784;DHT22;19359;51.402;6.778;2024-01-30T10:30:27;10.60;99.90
7784;DHT22;19359;51.402;6.778;2024-01-30T10:32:54;10.70;99.90
7784;DHT22;19359;51.402;6.778;2024-01-30T10:37:48;10.80;99.90
7784;DHT22;19359;51.402;6.778;2024-01-30T10:40:15;10.80;99.90
7784;DHT22;19359;51.402;6.778;2024-01-30T10:42:45;10.90;99.90
7784;DHT22;19359;51.402;6.778;2024-01-30T10:45:12;10.90;99.90
7784;DHT22;19359;51.402;6.778;2024-01-30T10:47:44;10.90;99.90
7784;DHT22;19359;51.402;6.778;2024-01-30T10:50:15;10.90;99.90
7784;DHT22;19359;51.402;6.778;2024-01-30T10:52:42;10.90;99.90
7784;DHT22;19359;51.402;6.778;2024-01-30T10:55:10;10.90;99.90
7784;DHT22;19359;51.402;6.778;2024-01-30T10:57:37;11.00;99.90
7784;DHT22;19359;51.402;6.778;2024-01-30T11:00:07;11.10;99.90
7784;DHT22;19359;51.402;6.778;2024-01-30T11:02:37;11.20;99.90
7784;DHT22;19359;51.402;6.778;2024-01-30T11:05:05;11.20;99.90
7784;DHT22;19359;51.402;6.778;2024-01-30T11:07:32;11.30;99.90
7784;DHT22;19359;51.402;6.778;2024-01-30T11:10:01;11.30;99.90
7784;DHT22;19359;51.402;6.778;2024-01-30T11:12:29;11.40;99.90
7784;DHT22;19359;51.402;6.778;2024-01-30T11:15:02;11.30;99.90
7784;DHT22;19359;51.402;6.778;2024-01-30T11:17:44;11.40;99.90
7784;DHT22;19359;51.402;6.778;2024-01-30T11:20:12;11.40;99.90
7784;DHT22;19359;51.402;6.778;2024-01-30T11:22:42;11.40;99.90
7784;DHT22;19359;51.402;6.778;2024-01-30T11:25:13;11.40;99.90
7784;DHT22;19359;51.402;6.778;2024-01-30T11:27:41;11.40;99.90
7784;DHT22;19359;51.402;6.778;2024-01-30T11:30:08;11.40;99.90
7784;DHT22;19359;51.402;6.778;2024-01-30T11:32:35;11.40;99.90
7784;DHT22;19359;51.402;6.778;2024-01-30T11:35:05;11.40;99.90
7784;DHT22;19359;51.402;6.778;2024-01-30T11:37:37;11.30;99.90
7784;DHT22;19359;51.402;6.778;2024-01-30T11:40:05;11.30;99.90
7784;DHT22;19359;51.402;6.778;2024-01-30T11:45:00;11.20;99.90
7784;DHT22;19359;51.402;6.778;2024-01-30T11:47:28;11.20;99.90
7784;DHT22;19359;51.402;6.778;2024-01-30T11:49:55;11.10;99.90
7784;DHT22;19359;51.402;6.778;2024-01-30T11:52:23;11.10;99.90
7784;DHT22;19359;51.402;6.778;2024-01-30T11:54:49;11.10;99.90
7784;DHT22;19359;51.402;6.778;2024-01-30T11:57:16;11.10;99.90
7784;DHT22;19359;51.402;6.778;2024-01-30T11:59:43;11.10;99.90
7784;DHT22;19359;51.402;6.778;2024-01-30T12:02:15;11.10;99.90
7784;DHT22;19359;51.402;6.778;2024-01-30T12:04:43;11.10;99.90
7784;DHT22;19359;51.402;6.778;2024-01-30T12:07:11;11.20;99.90
7784;DHT22;19359;51.402;6.778;2024-01-30T12:09:39;11.20;99.90
7784;DHT22;19359;51.402;6.778;2024-01-30T12:12:07;11.20;99.90
7784;DHT22;19359;51.402;6.778;2024-01-30T12:14:37;11.20;99.90
7784;DHT22;19359;51.402;6.778;2024-01-30T12:17:04;11.20;99.90
7784;DHT22;19359;51.402;6.778;2024-01-30T12:19:33;11.30;99.90
7784;DHT22;19359;51.402;6.778;2024-01-30T12:22:00;11.30;99.90
7784;DHT22;19359;51.402;6.778;2024-01-30T12:24:27;11.30;99.90
7784;DHT22;19359;51.402;6.778;2024-01-30T12:26:58;11.30;99.90
7784;DHT22;19359;51.402;6.778;2024-01-30T12:29:25;11.30;99.90
7784;DHT22;19359;51.402;6.778;2024-01-30T12:31:53;11.40;99.90
7784;DHT22;19359;51.402;6.778;2024-01-30T12:34:20;11.30;99.90
7784;DHT22;19359;51.402;6.778;2024-01-30T12:36:47;11.30;99.90
7784;DHT22;19359;51.402;6.778;2024-01-30T12:39:14;11.30;99.90
7784;DHT22;19359;51.402;6.778;2024-01-30T12:41:41;11.20;99.90
7784;DHT22;19359;51.402;6.778;2024-01-30T12:44:09;11.30;99.90
7784;DHT22;19359;51.402;6.778;2024-01-30T12:46:36;11.30;99.90
7784;DHT22;19359;51.402;6.778;2024-01-30T12:49:03;11.40;99.90
7784;DHT22;19359;51.402;6.778;2024-01-30T12:51:30;11.30;99.90
7784;DHT22;19359;51.402;6.778;2024-01-30T12:53:56;11.40;99.90
7784;DHT22;19359;51.402;6.778;2024-01-30T12:56:24;11.40;99.90
7784;DHT22;19359;51.402;6.778;2024-01-30T13:01:20;11.40;99.90
7784;DHT22;19359;51.402;6.778;2024-01-30T13:03:46;11.30;99.90
7784;DHT22;19359;51.402;6.778;2024-01-30T13:06:13;11.40;99.90
7784;DHT22;19359;51.402;6.778;2024-01-30T13:08:40;11.40;99.90
7784;DHT22;19359;51.402;6.778;2024-01-30T13:11:07;11.40;99.90
7784;DHT22;19359;51.402;6.778;2024-01-30T13:13:33;11.40;99.90
7784;DHT22;19359;51.402;6.778;2024-01-30T13:16:01;11.40;99.90
7784;DHT22;19359;51.402;6.778;2024-01-30T13:18:29;11.40;99.90
7784;DHT22;19359;51.402;6.778;2024-01-30T13:20:56;11.40;99.90
7784;DHT22;19359;51.402;6.778;2024-01-30T13:23:23;11.50;99.90
7784;DHT22;19359;51.402;6.778;2024-01-30T13:25:49;11.40;99.90
7784;DHT22;19359;51.402;6.778;2024-01-30T13:28:16;11.50;99.90
7784;DHT22;19359;51.402;6.778;2024-01-30T13:30:43;11.60;99.90
7784;DHT22;19359;51.402;6.778;2024-01-30T13:33:10;11.60;99.90
7784;DHT22;19359;51.402;6.778;2024-01-30T13:35:39;11.60;99.90
7784;DHT22;19359;51.402;6.778;2024-01-30T13:38:05;11.70;99.90
7784;DHT22;19359;51.402;6.778;2024-01-30T13:40:32;11.80;99.90
7784;DHT22;19359;51.402;6.778;2024-01-30T13:42:59;11.80;99.90
7784;DHT22;19359;51.402;6.778;2024-01-30T13:45:26;11.80;99.90
7784;DHT22;19359;51.402;6.778;2024-01-30T13:47:53;11.80;99.90
7784;DHT22;19359;51.402;6.778;2024-01-30T13:50:19;11.90;99.90
7784;DHT22;19359;51.402;6.778;2024-01-30T13:52:47;11.90;99.90
7784;DHT22;19359;51.402;6.778;2024-01-30T13:55:14;12.00;99.90
7784;DHT22;19359;51.402;6.778;2024-01-30T13:57:41;12.00;99.90
7784;DHT22;19359;51.402;6.778;2024-01-30T14:00:09;12.00;99.90
7784;DHT22;19359;51.402;6.778;2024-01-30T14:02:36;12.00;99.90
7784;DHT22;19359;51.402;6.778;2024-01-30T14:05:04;12.10;99.90
7784;DHT22;19359;51.402;6.778;2024-01-30T14:07:31;12.10;99.90
7784;DHT22;19359;51.402;6.778;2024-01-30T14:09:59;12.20;99.90
7784;DHT22;19359;51.402;6.778;2024-01-30T14:12:26;12.10;99.90
7784;DHT22;19359;51.402;6.778;2024-01-30T14:14:54;12.20;99.90
7784;DHT22;19359;51.402;6.778;2024-01-30T14:17:20;12.20;99.90
7784;DHT22;19359;51.402;6.778;2024-01-30T14:19:47;12.20;99.90
7784;DHT22;19359;51.402;6.778;2024-01-30T14:22:14;12.10;99.90
7784;DHT22;19359;51.402;6.778;2024-01-30T14:24:41;12.10;99.90
7784;DHT22;19359;51.402;6.778;2024-01-30T14:27:09;12.10;99.90
7784;DHT22;19359;51.402;6.778;2024-01-30T14:29:36;12.10;99.90
7784;DHT22;19359;51.402;6.778;2024-01-30T14:32:04;12.10;99.90
7784;DHT22;19359;51.402;6.778;2024-01-30T14:34:31;12.10;99.90
7784;DHT22;19359;51.402;6.778;2024-01-30T14:36:57;12.10;99.90
7784;DHT22;19359;51.402;6.778;2024-01-30T14:39:24;12.10;99.90
7784;DHT22;19359;51.402;6.778;2024-01-30T14:41:51;12.10;99.90
7784;DHT22;19359;51.402;6.778;2024-01-30T14:44:19;12.10;99.90
7784;DHT22;19359;51.402;6.778;2024-01-30T14:46:46;12.10;99.90
7784;DHT22;19359;51.402;6.778;2024-01-30T14:49:13;12.00;99.90
7784;DHT22;19359;51.402;6.778;2024-01-30T14:51:41;12.00;99.90
7784;DHT22;19359;51.402;6.778;2024-01-30T14:56:34;12.00;99.90
7784;DHT22;19359;51.402;6.778;2024-01-30T14:59:01;12.10;99.90
7784;DHT22;19359;51.402;6.778;2024-01-30T15:01:30;12.10;99.90
7784;DHT22;19359;51.402;6.778;2024-01-30T15:03:56;12.10;99.90
7784;DHT22;19359;51.402;6.778;2024-01-30T15:06:23;12.00;99.90
7784;DHT22;19359;51.402;6.778;2024-01-30T15:08:50;11.80;99.90
7784;DHT22;19359;51.402;6.778;2024-01-30T15:11:17;11.70;99.90
7784;DHT22;19359;51.402;6.778;2024-01-30T15:13:44;11.60;99.90
7784;DHT22;19359;51.402;6.778;2024-01-30T15:16:11;11.60;99.90
7784;DHT22;19359;51.402;6.778;2024-01-30T15:18:39;11.50;99.90
7784;DHT22;19359;51.402;6.778;2024-01-30T15:21:06;11.50;99.90
7784;DHT22;19359;51.402;6.778;2024-01-30T15:26:00;11.40;99.90
7784;DHT22;19359;51.402;6.778;2024-01-30T15:28:35;11.30;99.90
7784;DHT22;19359;51.402;6.778;2024-01-30T15:31:03;11.30;99.90
7784;DHT22;19359;51.402;6.778;2024-01-30T15:33:29;11.20;99.90
7784;DHT22;19359;51.402;6.778;2024-01-30T15:35:58;11.10;99.90
7784;DHT22;19359;51.402;6.778;2024-01-30T15:38:25;11.10;99.90
7784;DHT22;19359;51.402;6.778;2024-01-30T15:40:53;11.10;99.90
7784;DHT22;19359;51.402;6.778;2024-01-30T15:43:19;11.00;99.90
7784;DHT22;19359;51.402;6.778;2024-01-30T15:45:46;11.00;99.90
7784;DHT22;19359;51.402;6.778;2024-01-30T15:48:13;11.00;99.90
7784;DHT22;19359;51.402;6.778;2024-01-30T15:50:40;10.90;99.90
7784;DHT22;19359;51.402;6.778;2024-01-30T15:53:08;10.90;99.90
7784;DHT22;19359;51.402;6.778;2024-01-30T15:55:35;10.90;99.90
7784;DHT22;19359;51.402;6.778;2024-01-30T15:58:03;10.80;99.90
7784;DHT22;19359;51.402;6.778;2024-01-30T16:00:31;10.80;99.90
7784;DHT22;19359;51.402;6.778;2024-01-30T16:02:59;10.70;99.90
7784;DHT22;19359;51.402;6.778;2024-01-30T16:05:26;10.70;99.90
7784;DHT22;19359;51.402;6.778;2024-01-30T16:07:53;10.60;99.90
7784;DHT22;19359;51.402;6.778;2024-01-30T16:10:21;10.50;99.90
7784;DHT22;19359;51.402;6.778;2024-01-30T16:12:48;10.50;99.90
7784;DHT22;19359;51.402;6.778;2024-01-30T16:15:15;10.40;99.90
7784;DHT22;19359;51.402;6.778;2024-01-30T16:17:44;10.40;99.90
7784;DHT22;19359;51.402;6.778;2024-01-30T16:20:11;10.30;99.90
7784;DHT22;19359;51.402;6.778;2024-01-30T16:22:39;10.20;99.90
7784;DHT22;19359;51.402;6.778;2024-01-30T16:25:07;10.20;99.90
7784;DHT22;19359;51.402;6.778;2024-01-30T16:27:35;10.20;99.90
7784;DHT22;19359;51.402;6.778;2024-01-30T16:30:02;10.20;99.90
7784;DHT22;19359;51.402;6.778;2024-01-30T16:32:29;10.20;99.90
7784;DHT22;19359;51.402;6.778;2024-01-30T16:34:56;10.20;99.90
7784;DHT22;19359;51.402;6.778;2024-01-30T16:37:23;10.20;99.90
7784;DHT22;19359;51.402;6.778;2024-01-30T16:39:50;10.20;99.90
7784;DHT22;19359;51.402;6.778;2024-01-30T16:42:17;10.20;99.90
7784;DHT22;19359;51.402;6.778;2024-01-30T16:44:46;10.20;99.90
7784;DHT22;19359;51.402;6.778;2024-01-30T16:47:13;10.20;99.90
7784;DHT22;19359;51.402;6.778;2024-01-30T16:49:40;10.20;99.90
7784;DHT22;19359;51.402;6.778;2024-01-30T16:52:07;10.20;99.90
7784;DHT22;19359;51.402;6.778;2024-01-30T16:54:33;10.20;99.90
7784;DHT22;19359;51.402;6.778;2024-01-30T16:57:00;10.20;99.90
7784;DHT22;19359;51.402;6.778;2024-01-30T16:59:27;10.20;99.90
7784;DHT22;19359;51.402;6.778;2024-01-30T17:01:55;10.20;99.90
7784;DHT22;19359;51.402;6.778;2024-01-30T17:04:22;10.20;99.90
7784;DHT22;19359;51.402;6.778;2024-01-30T17:06:49;10.20;99.90
7784;DHT22;19359;51.402;6.778;2024-01-30T17:09:17;10.10;99.90
7784;DHT22;19359;51.402;6.778;2024-01-30T17:11:44;10.10;99.90
7784;DHT22;19359;51.402;6.778;2024-01-30T17:16:39;10.20;99.90
7784;DHT22;19359;51.402;6.778;2024-01-30T17:19:07;10.10;99.90
7784;DHT22;19359;51.402;6.778;2024-01-30T17:21:34;10.10;99.90
7784;DHT22;19359;51.402;6.778;2024-01-30T17:24:02;10.10;99.90
7784;DHT22;19359;51.402;6.778;2024-01-30T17:26:29;10.00;99.90
7784;DHT22;19359;51.402;6.778;2024-01-30T17:28:57;9.90;99.90
7784;DHT22;19359;51.402;6.778;2024-01-30T17:31:23;9.80;99.90
7784;DHT22;19359;51.402;6.778;2024-01-30T17:33:50;9.80;99.90
7784;DHT22;19359;51.402;6.778;2024-01-30T17:36:18;9.80;99.90
7784;DHT22;19359;51.402;6.778;2024-01-30T17:38:46;9.70;99.90
7784;DHT22;19359;51.402;6.778;2024-01-30T17:41:13;9.50;99.90
7784;DHT22;19359;51.402;6.778;2024-01-30T17:43:40;9.50;99.90
7784;DHT22;19359;51.402;6.778;2024-01-30T17:46:06;9.40;99.90
7784;DHT22;19359;51.402;6.778;2024-01-30T17:48:34;9.40;99.90
7784;DHT22;19359;51.402;6.778;2024-01-30T17:51:02;9.40;99.90
7784;DHT22;19359;51.402;6.778;2024-01-30T17:53:30;9.40;99.90
7784;DHT22;19359;51.402;6.778;2024-01-30T17:55:57;9.30;99.90